sensor_id;sensor_type;location;lat;lon;timestamp;temperature;humidity
28524;DHT22;15734;50.904;6.922;2023-05-29T00:01:12;17.40;99.90
28524;DHT22;15734;50.904;6.922;2023-05-29T00:03:37;17.30;99.90
28524;DHT22;15734;50.904;6.922;2023-05-29T00:06:03;17.30;99.90
28524;DHT22;15734;50.904;6.922;2023-05-29T00:08:29;17.30;99.90
28524;DHT22;15734;50.904;6.922;2023-05-29T00:10:54;17.30;99.90
28524;DHT22;15734;50.904;6.922;2023-05-29T00:13:20;17.20;99.90
28524;DHT22;15734;50.904;6.922;2023-05-29T00:15:46;17.10;99.90
28524;DHT22;15734;50.904;6.922;2023-05-29T00:18:11;17.10;99.90
28524;DHT22;15734;50.904;6.922;2023-05-29T00:20:37;17.00;99.90
28524;DHT22;15734;50.904;6.922;2023-05-29T00:23:03;17.00;99.90
28524;DHT22;15734;50.904;6.922;2023-05-29T00:25:31;16.90;99.90
28524;DHT22;15734;50.904;6.922;2023-05-29T00:27:57;16.90;99.90
28524;DHT22;15734;50.904;6.922;2023-05-29T00:30:22;16.80;99.90
28524;DHT22;15734;50.904;6.922;2023-05-29T00:32:48;16.80;99.90
28524;DHT22;15734;50.904;6.922;2023-05-29T00:35:14;16.70;99.90
28524;DHT22;15734;50.904;6.922;2023-05-29T00:37:39;16.70;99.90
28524;DHT22;15734;50.904;6.922;2023-05-29T00:40:05;16.70;99.90
28524;DHT22;15734;50.904;6.922;2023-05-29T00:42:31;16.60;99.90
28524;DHT22;15734;50.904;6.922;2023-05-29T00:44:57;16.60;99.90
28524;DHT22;15734;50.904;6.922;2023-05-29T00:47:23;16.60;99.90
28524;DHT22;15734;50.904;6.922;2023-05-29T00:49:49;16.50;99.90
28524;DHT22;15734;50.904;6.922;2023-05-29T00:52:17;16.50;99.90
28524;DHT22;15734;50.904;6.922;2023-05-29T00:54:44;16.50;99.90
28524;DHT22;15734;50.904;6.922;2023-05-29T00:57:12;16.30;99.90
28524;DHT22;15734;50.904;6.922;2023-05-29T00:59:39;16.30;99.90
28524;DHT22;15734;50.904;6.922;2023-05-29T01:02:06;16.30;99.90
28524;DHT22;15734;50.904;6.922;2023-05-29T01:04:32;16.30;99.90
28524;DHT22;15734;50.904;6.922;2023-05-29T01:07:01;16.20;99.90
28524;DHT22;15734;50.904;6.922;2023-05-29T01:09:28;16.20;99.90
28524;DHT22;15734;50.904;6.922;2023-05-29T01:17:14;16.00;99.90
28524;DHT22;15734;50.904;6.922;2023-05-29T01:23:07;16.00;99.90
28524;DHT22;15734;50.904;6.922;2023-05-29T01:28:25;15.90;99.90
28524;DHT22;15734;50.904;6.922;2023-05-29T01:30:54;15.80;99.90
28524;DHT22;15734;50.904;6.922;2023-05-29T01:33:22;15.80;99.90
28524;DHT22;15734;50.904;6.922;2023-05-29T01:35:47;15.70;99.90
28524;DHT22;15734;50.904;6.922;2023-05-29T01:38:13;15.70;99.90
28524;DHT22;15734;50.904;6.922;2023-05-29T01:40:39;15.70;99.90
28524;DHT22;15734;50.904;6.922;2023-05-29T01:43:05;15.60;99.90
28524;DHT22;15734;50.904;6.922;2023-05-29T01:45:31;15.50;99.90
28524;DHT22;15734;50.904;6.922;2023-05-29T01:47:57;15.50;99.90
28524;DHT22;15734;50.904;6.922;2023-05-29T01:50:23;15.40;99.90
28524;DHT22;15734;50.904;6.922;2023-05-29T01:52:49;15.30;99.90
28524;DHT22;15734;50.904;6.922;2023-05-29T01:55:15;15.30;99.90
28524;DHT22;15734;50.904;6.922;2023-05-29T01:57:41;15.30;99.90
28524;DHT22;15734;50.904;6.922;2023-05-29T02:00:07;15.30;99.90
28524;DHT22;15734;50.904;6.922;2023-05-29T02:02:40;15.20;99.90
28524;DHT22;15734;50.904;6.922;2023-05-29T02:05:07;15.10;99.90
28524;DHT22;15734;50.904;6.922;2023-05-29T02:07:34;14.90;99.90
28524;DHT22;15734;50.904;6.922;2023-05-29T02:10:00;14.80;99.90
28524;DHT22;15734;50.904;6.922;2023-05-29T02:12:25;14.70;99.90
28524;DHT22;15734;50.904;6.922;2023-05-29T02:14:51;14.70;99.90
28524;DHT22;15734;50.904;6.922;2023-05-29T02:17:17;14.60;99.90
28524;DHT22;15734;50.904;6.922;2023-05-29T02:19:44;14.50;99.90
28524;DHT22;15734;50.904;6.922;2023-05-29T02:22:10;14.50;99.90
28524;DHT22;15734;50.904;6.922;2023-05-29T02:24:35;14.50;99.90
28524;DHT22;15734;50.904;6.922;2023-05-29T02:27:01;14.40;99.90
28524;DHT22;15734;50.904;6.922;2023-05-29T02:29:28;14.40;99.90
28524;DHT22;15734;50.904;6.922;2023-05-29T02:31:53;14.40;99.90
28524;DHT22;15734;50.904;6.922;2023-05-29T02:34:19;14.40;99.90
28524;DHT22;15734;50.904;6.922;2023-05-29T02:36:48;14.40;99.90
28524;DHT22;15734;50.904;6.922;2023-05-29T02:39:14;14.30;99.90
28524;DHT22;15734;50.904;6.922;2023-05-29T02:41:39;14.40;99.90
28524;DHT22;15734;50.904;6.922;2023-05-29T02:44:05;14.40;99.90
28524;DHT22;15734;50.904;6.922;2023-05-29T02:46:30;14.30;99.90
28524;DHT22;15734;50.904;6.922;2023-05-29T02:48:56;14.20;99.90
28524;DHT22;15734;50.904;6.922;2023-05-29T02:51:21;14.30;99.90
28524;DHT22;15734;50.904;6.922;2023-05-29T02:53:47;14.10;99.90
28524;DHT22;15734;50.904;6.922;2023-05-29T02:56:14;14.10;99.90
28524;DHT22;15734;50.904;6.922;2023-05-29T02:58:41;14.10;99.90
28524;DHT22;15734;50.904;6.922;2023-05-29T03:01:06;14.10;99.90
28524;DHT22;15734;50.904;6.922;2023-05-29T03:03:32;14.00;99.90
28524;DHT22;15734;50.904;6.922;2023-05-29T03:05:57;14.00;99.90
28524;DHT22;15734;50.904;6.922;2023-05-29T03:08:24;13.90;99.90
28524;DHT22;15734;50.904;6.922;2023-05-29T03:10:51;13.90;99.90
28524;DHT22;15734;50.904;6.922;2023-05-29T03:13:17;13.90;99.90
28524;DHT22;15734;50.904;6.922;2023-05-29T03:15:44;13.80;99.90
28524;DHT22;15734;50.904;6.922;2023-05-29T03:18:09;13.80;99.90
28524;DHT22;15734;50.904;6.922;2023-05-29T03:20:35;13.70;99.90
28524;DHT22;15734;50.904;6.922;2023-05-29T03:23:00;13.60;99.90
28524;DHT22;15734;50.904;6.922;2023-05-29T03:25:26;13.60;99.90
28524;DHT22;15734;50.904;6.922;2023-05-29T03:27:52;13.60;99.90
28524;DHT22;15734;50.904;6.922;2023-05-29T03:30:17;13.50;99.90
28524;DHT22;15734;50.904;6.922;2023-05-29T03:32:44;13.60;99.90
28524;DHT22;15734;50.904;6.922;2023-05-29T03:35:10;13.50;99.90
28524;DHT22;15734;50.904;6.922;2023-05-29T03:37:35;13.50;99.90
28524;DHT22;15734;50.904;6.922;2023-05-29T03:40:01;13.50;99.90
28524;DHT22;15734;50.904;6.922;2023-05-29T03:42:27;13.50;99.90
28524;DHT22;15734;50.904;6.922;2023-05-29T03:44:53;13.40;99.90
28524;DHT22;15734;50.904;6.922;2023-05-29T03:47:19;13.40;99.90
28524;DHT22;15734;50.904;6.922;2023-05-29T03:49:45;13.40;99.90
28524;DHT22;15734;50.904;6.922;2023-05-29T03:52:11;13.40;99.90
28524;DHT22;15734;50.904;6.922;2023-05-29T03:54:36;13.40;99.90
28524;DHT22;15734;50.904;6.922;2023-05-29T03:57:02;13.40;99.90
28524;DHT22;15734;50.904;6.922;2023-05-29T03:59:28;13.40;99.90
28524;DHT22;15734;50.904;6.922;2023-05-29T04:01:53;13.30;99.90
28524;DHT22;15734;50.904;6.922;2023-05-29T04:04:19;13.40;99.90
28524;DHT22;15734;50.904;6.922;2023-05-29T04:06:44;13.30;99.90
28524;DHT22;15734;50.904;6.922;2023-05-29T04:09:10;13.30;99.90
28524;DHT22;15734;50.904;6.922;2023-05-29T04:11:36;13.30;99.90
28524;DHT22;15734;50.904;6.922;2023-05-29T04:14:02;13.30;99.90
28524;DHT22;15734;50.904;6.922;2023-05-29T04:16:28;13.30;99.90
28524;DHT22;15734;50.904;6.922;2023-05-29T04:18:54;13.20;99.90
28524;DHT22;15734;50.904;6.922;2023-05-29T04:21:20;13.20;99.90
28524;DHT22;15734;50.904;6.922;2023-05-29T04:23:46;13.30;99.90
28524;DHT22;15734;50.904;6.922;2023-05-29T04:26:11;13.30;99.90
28524;DHT22;15734;50.904;6.922;2023-05-29T04:28:38;13.30;99.90
28524;DHT22;15734;50.904;6.922;2023-05-29T04:31:04;13.20;99.90
28524;DHT22;15734;50.904;6.922;2023-05-29T04:33:31;13.20;99.90
28524;DHT22;15734;50.904;6.922;2023-05-29T04:35:58;13.10;99.90
28524;DHT22;15734;50.904;6.922;2023-05-29T04:38:26;13.10;99.90
28524;DHT22;15734;50.904;6.922;2023-05-29T04:40:52;13.10;99.90
28524;DHT22;15734;50.904;6.922;2023-05-29T04:43:22;13.20;99.90
28524;DHT22;15734;50.904;6.922;2023-05-29T04:45:48;13.10;99.90
28524;DHT22;15734;50.904;6.922;2023-05-29T04:48:13;13.20;99.90
28524;DHT22;15734;50.904;6.922;2023-05-29T04:50:39;13.20;99.90
28524;DHT22;15734;50.904;6.922;2023-05-29T04:53:05;13.30;99.90
28524;DHT22;15734;50.904;6.922;2023-05-29T04:55:31;13.20;99.90
28524;DHT22;15734;50.904;6.922;2023-05-29T04:57:56;13.30;99.90
28524;DHT22;15734;50.904;6.922;2023-05-29T05:00:22;13.20;99.90
28524;DHT22;15734;50.904;6.922;2023-05-29T05:02:49;13.20;99.90
28524;DHT22;15734;50.904;6.922;2023-05-29T05:05:14;13.20;99.90
28524;DHT22;15734;50.904;6.922;2023-05-29T05:07:40;13.20;99.90
28524;DHT22;15734;50.904;6.922;2023-05-29T05:10:06;13.20;99.90
28524;DHT22;15734;50.904;6.922;2023-05-29T05:12:32;13.20;99.90
28524;DHT22;15734;50.904;6.922;2023-05-29T05:14:57;13.20;99.90
28524;DHT22;15734;50.904;6.922;2023-05-29T05:17:23;13.10;99.90
28524;DHT22;15734;50.904;6.922;2023-05-29T05:19:48;13.10;99.90
28524;DHT22;15734;50.904;6.922;2023-05-29T05:22:15;13.10;99.90
28524;DHT22;15734;50.904;6.922;2023-05-29T05:24:41;13.20;99.90
28524;DHT22;15734;50.904;6.922;2023-05-29T05:27:06;13.20;99.90
28524;DHT22;15734;50.904;6.922;2023-05-29T05:29:32;13.30;99.90
28524;DHT22;15734;50.904;6.922;2023-05-29T05:31:58;13.30;99.90
28524;DHT22;15734;50.904;6.922;2023-05-29T05:34:23;13.30;99.90
28524;DHT22;15734;50.904;6.922;2023-05-29T05:36:49;13.30;99.90
28524;DHT22;15734;50.904;6.922;2023-05-29T05:39:15;13.30;99.90
28524;DHT22;15734;50.904;6.922;2023-05-29T05:41:40;13.40;99.90
28524;DHT22;15734;50.904;6.922;2023-05-29T05:44:06;13.40;99.90
28524;DHT22;15734;50.904;6.922;2023-05-29T05:46:31;13.40;99.90
28524;DHT22;15734;50.904;6.922;2023-05-29T05:48:57;13.50;99.90
28524;DHT22;15734;50.904;6.922;2023-05-29T05:51:23;13.50;99.90
28524;DHT22;15734;50.904;6.922;2023-05-29T05:53:49;13.60;99.90
28524;DHT22;15734;50.904;6.922;2023-05-29T05:56:14;13.50;99.90
28524;DHT22;15734;50.904;6.922;2023-05-29T05:58:40;13.60;99.90
28524;DHT22;15734;50.904;6.922;2023-05-29T06:01:07;13.60;99.90
28524;DHT22;15734;50.904;6.922;2023-05-29T06:03:33;13.60;99.90
28524;DHT22;15734;50.904;6.922;2023-05-29T06:05:59;13.60;99.90
28524;DHT22;15734;50.904;6.922;2023-05-29T06:08:25;13.60;99.90
28524;DHT22;15734;50.904;6.922;2023-05-29T06:10:50;13.60;99.90
28524;DHT22;15734;50.904;6.922;2023-05-29T06:13:16;13.70;99.90
28524;DHT22;15734;50.904;6.922;2023-05-29T06:15:42;13.70;99.90
28524;DHT22;15734;50.904;6.922;2023-05-29T06:18:08;13.70;99.90
28524;DHT22;15734;50.904;6.922;2023-05-29T06:20:34;13.70;99.90
28524;DHT22;15734;50.904;6.922;2023-05-29T06:22:59;13.70;99.90
28524;DHT22;15734;50.904;6.922;2023-05-29T06:25:25;13.80;99.90
28524;DHT22;15734;50.904;6.922;2023-05-29T06:28:02;13.90;99.90
28524;DHT22;15734;50.904;6.922;2023-05-29T06:30:28;13.90;99.90
28524;DHT22;15734;50.904;6.922;2023-05-29T06:32:53;14.00;99.90
28524;DHT22;15734;50.904;6.922;2023-05-29T06:35:19;14.00;99.90
28524;DHT22;15734;50.904;6.922;2023-05-29T06:37:45;14.10;99.90
28524;DHT22;15734;50.904;6.922;2023-05-29T06:40:12;14.00;99.90
28524;DHT22;15734;50.904;6.922;2023-05-29T06:42:38;14.10;99.90
28524;DHT22;15734;50.904;6.922;2023-05-29T06:45:04;14.10;99.90
28524;DHT22;15734;50.904;6.922;2023-05-29T06:47:29;14.10;99.90
28524;DHT22;15734;50.904;6.922;2023-05-29T06:49:55;14.10;99.90
28524;DHT22;15734;50.904;6.922;2023-05-29T06:52:21;14.10;99.90
28524;DHT22;15734;50.904;6.922;2023-05-29T06:54:46;14.20;99.90
28524;DHT22;15734;50.904;6.922;2023-05-29T06:57:12;14.30;99.90
28524;DHT22;15734;50.904;6.922;2023-05-29T06:59:38;14.40;99.90
28524;DHT22;15734;50.904;6.922;2023-05-29T07:02:03;14.50;99.90
28524;DHT22;15734;50.904;6.922;2023-05-29T07:04:29;14.50;99.90
28524;DHT22;15734;50.904;6.922;2023-05-29T07:06:55;14.60;99.90
28524;DHT22;15734;50.904;6.922;2023-05-29T07:09:20;14.60;99.90
28524;DHT22;15734;50.904;6.922;2023-05-29T07:11:46;14.60;99.90
28524;DHT22;15734;50.904;6.922;2023-05-29T07:14:11;14.70;99.90
28524;DHT22;15734;50.904;6.922;2023-05-29T07:16:37;14.80;99.90
28524;DHT22;15734;50.904;6.922;2023-05-29T07:19:03;14.80;99.90
28524;DHT22;15734;50.904;6.922;2023-05-29T07:21:28;14.90;99.90
28524;DHT22;15734;50.904;6.922;2023-05-29T07:23:54;15.00;99.90
28524;DHT22;15734;50.904;6.922;2023-05-29T07:26:19;15.00;99.90
28524;DHT22;15734;50.904;6.922;2023-05-29T07:28:47;14.90;99.90
28524;DHT22;15734;50.904;6.922;2023-05-29T07:31:12;15.00;99.90
28524;DHT22;15734;50.904;6.922;2023-05-29T07:33:40;15.00;99.90
28524;DHT22;15734;50.904;6.922;2023-05-29T07:36:06;15.10;99.90
28524;DHT22;15734;50.904;6.922;2023-05-29T07:38:33;15.10;99.90
28524;DHT22;15734;50.904;6.922;2023-05-29T07:40:58;15.10;99.90
28524;DHT22;15734;50.904;6.922;2023-05-29T07:43:24;15.20;99.90
28524;DHT22;15734;50.904;6.922;2023-05-29T07:45:49;15.30;99.90
28524;DHT22;15734;50.904;6.922;2023-05-29T07:48:15;15.30;99.90
28524;DHT22;15734;50.904;6.922;2023-05-29T07:50:40;15.30;99.90
28524;DHT22;15734;50.904;6.922;2023-05-29T07:53:06;15.40;99.90
28524;DHT22;15734;50.904;6.922;2023-05-29T07:55:33;15.40;99.90
28524;DHT22;15734;50.904;6.922;2023-05-29T07:57:59;15.60;99.90
28524;DHT22;15734;50.904;6.922;2023-05-29T08:00:25;15.70;99.90
28524;DHT22;15734;50.904;6.922;2023-05-29T08:02:51;15.80;99.90
28524;DHT22;15734;50.904;6.922;2023-05-29T08:05:17;15.80;99.90
28524;DHT22;15734;50.904;6.922;2023-05-29T08:07:43;15.90;99.90
28524;DHT22;15734;50.904;6.922;2023-05-29T08:10:09;16.00;99.90
28524;DHT22;15734;50.904;6.922;2023-05-29T08:12:35;16.10;99.90
28524;DHT22;15734;50.904;6.922;2023-05-29T08:15:02;16.30;99.90
28524;DHT22;15734;50.904;6.922;2023-05-29T08:17:27;16.40;99.90
28524;DHT22;15734;50.904;6.922;2023-05-29T08:19:53;16.40;99.90
28524;DHT22;15734;50.904;6.922;2023-05-29T08:22:19;16.40;99.90
28524;DHT22;15734;50.904;6.922;2023-05-29T08:24:44;16.50;99.90
28524;DHT22;15734;50.904;6.922;2023-05-29T08:27:10;16.60;99.90
28524;DHT22;15734;50.904;6.922;2023-05-29T08:29:35;16.60;99.90
28524;DHT22;15734;50.904;6.922;2023-05-29T08:32:02;16.60;99.90
28524;DHT22;15734;50.904;6.922;2023-05-29T08:34:27;16.60;99.90
28524;DHT22;15734;50.904;6.922;2023-05-29T08:36:53;16.70;99.90
28524;DHT22;15734;50.904;6.922;2023-05-29T08:39:20;16.70;99.90
28524;DHT22;15734;50.904;6.922;2023-05-29T08:42:00;16.80;99.90
28524;DHT22;15734;50.904;6.922;2023-05-29T08:44:30;16.90;99.90
28524;DHT22;15734;50.904;6.922;2023-05-29T08:46:57;17.00;99.90
28524;DHT22;15734;50.904;6.922;2023-05-29T08:49:29;17.00;99.90
28524;DHT22;15734;50.904;6.922;2023-05-29T08:52:02;17.00;99.90
28524;DHT22;15734;50.904;6.922;2023-05-29T08:54:31;17.10;99.90
28524;DHT22;15734;50.904;6.922;2023-05-29T08:56:58;17.10;99.90
28524;DHT22;15734;50.904;6.922;2023-05-29T08:59:25;17.30;99.90
28524;DHT22;15734;50.904;6.922;2023-05-29T09:01:51;17.40;99.90
28524;DHT22;15734;50.904;6.922;2023-05-29T09:04:16;17.50;99.90
28524;DHT22;15734;50.904;6.922;2023-05-29T09:06:42;17.50;99.90
28524;DHT22;15734;50.904;6.922;2023-05-29T09:09:10;17.50;99.90
28524;DHT22;15734;50.904;6.922;2023-05-29T09:11:35;17.60;99.90
28524;DHT22;15734;50.904;6.922;2023-05-29T09:14:01;17.70;99.90
28524;DHT22;15734;50.904;6.922;2023-05-29T09:16:28;17.80;99.90
28524;DHT22;15734;50.904;6.922;2023-05-29T09:19:04;17.90;99.90
28524;DHT22;15734;50.904;6.922;2023-05-29T09:21:30;17.90;99.90
28524;DHT22;15734;50.904;6.922;2023-05-29T09:24:03;18.00;99.90
28524;DHT22;15734;50.904;6.922;2023-05-29T09:26:30;18.10;99.90
28524;DHT22;15734;50.904;6.922;2023-05-29T09:28:56;18.40;99.90
28524;DHT22;15734;50.904;6.922;2023-05-29T09:31:22;18.40;99.90
28524;DHT22;15734;50.904;6.922;2023-05-29T09:33:48;18.50;99.90
28524;DHT22;15734;50.904;6.922;2023-05-29T09:36:20;18.50;99.90
28524;DHT22;15734;50.904;6.922;2023-05-29T09:38:47;18.40;99.90
28524;DHT22;15734;50.904;6.922;2023-05-29T09:41:13;18.50;99.90
28524;DHT22;15734;50.904;6.922;2023-05-29T09:43:38;18.60;99.90
28524;DHT22;15734;50.904;6.922;2023-05-29T09:46:06;18.50;99.90
28524;DHT22;15734;50.904;6.922;2023-05-29T09:48:35;18.60;99.90
28524;DHT22;15734;50.904;6.922;2023-05-29T09:51:02;18.70;99.90
28524;DHT22;15734;50.904;6.922;2023-05-29T09:53:28;18.90;99.90
28524;DHT22;15734;50.904;6.922;2023-05-29T09:55:56;18.80;99.90
28524;DHT22;15734;50.904;6.922;2023-05-29T09:58:23;18.80;99.90
28524;DHT22;15734;50.904;6.922;2023-05-29T10:00:50;19.00;99.90
28524;DHT22;15734;50.904;6.922;2023-05-29T10:03:17;19.10;99.90
28524;DHT22;15734;50.904;6.922;2023-05-29T10:05:46;19.00;99.90
28524;DHT22;15734;50.904;6.922;2023-05-29T10:08:14;19.10;99.90
28524;DHT22;15734;50.904;6.922;2023-05-29T10:10:43;19.30;99.90
28524;DHT22;15734;50.904;6.922;2023-05-29T10:13:14;19.30;99.90
28524;DHT22;15734;50.904;6.922;2023-05-29T10:15:45;19.40;99.90
28524;DHT22;15734;50.904;6.922;2023-05-29T10:18:23;19.50;99.90
28524;DHT22;15734;50.904;6.922;2023-05-29T10:20:50;19.60;99.90
28524;DHT22;15734;50.904;6.922;2023-05-29T10:23:20;19.60;99.90
28524;DHT22;15734;50.904;6.922;2023-05-29T10:25:49;19.70;99.90
28524;DHT22;15734;50.904;6.922;2023-05-29T10:28:15;19.90;99.90
28524;DHT22;15734;50.904;6.922;2023-05-29T10:30:49;20.00;99.90
28524;DHT22;15734;50.904;6.922;2023-05-29T10:33:22;20.00;99.90
28524;DHT22;15734;50.904;6.922;2023-05-29T10:36:13;20.10;99.90
28524;DHT22;15734;50.904;6.922;2023-05-29T10:38:44;20.00;99.90
28524;DHT22;15734;50.904;6.922;2023-05-29T10:44:01;20.00;99.90
28524;DHT22;15734;50.904;6.922;2023-05-29T10:49:21;19.80;99.90
28524;DHT22;15734;50.904;6.922;2023-05-29T10:51:47;20.00;99.90
28524;DHT22;15734;50.904;6.922;2023-05-29T10:54:16;20.20;99.90
28524;DHT22;15734;50.904;6.922;2023-05-29T10:56:44;20.40;99.90
28524;DHT22;15734;50.904;6.922;2023-05-29T10:59:17;20.40;99.90
28524;DHT22;15734;50.904;6.922;2023-05-29T11:01:43;20.50;99.90
28524;DHT22;15734;50.904;6.922;2023-05-29T11:06:45;20.40;99.90
28524;DHT22;15734;50.904;6.922;2023-05-29T11:09:37;20.50;99.90
28524;DHT22;15734;50.904;6.922;2023-05-29T11:12:23;20.60;99.90
28524;DHT22;15734;50.904;6.922;2023-05-29T11:20:07;21.00;99.90
28524;DHT22;15734;50.904;6.922;2023-05-29T11:25:14;21.00;99.90
28524;DHT22;15734;50.904;6.922;2023-05-29T11:27:40;21.20;99.90
28524;DHT22;15734;50.904;6.922;2023-05-29T11:30:06;21.30;99.90
28524;DHT22;15734;50.904;6.922;2023-05-29T11:32:34;21.50;99.90
28524;DHT22;15734;50.904;6.922;2023-05-29T11:35:05;21.90;99.90
28524;DHT22;15734;50.904;6.922;2023-05-29T11:37:32;21.80;99.90
28524;DHT22;15734;50.904;6.922;2023-05-29T11:39:58;21.90;99.90
28524;DHT22;15734;50.904;6.922;2023-05-29T11:42:24;22.00;99.90
28524;DHT22;15734;50.904;6.922;2023-05-29T11:44:50;22.10;99.90
28524;DHT22;15734;50.904;6.922;2023-05-29T11:47:15;22.20;99.90
28524;DHT22;15734;50.904;6.922;2023-05-29T11:49:41;22.30;99.90
28524;DHT22;15734;50.904;6.922;2023-05-29T11:52:11;22.60;99.90
28524;DHT22;15734;50.904;6.922;2023-05-29T11:54:37;22.30;99.90
28524;DHT22;15734;50.904;6.922;2023-05-29T11:57:03;22.30;99.90
28524;DHT22;15734;50.904;6.922;2023-05-29T11:59:31;22.60;99.90
28524;DHT22;15734;50.904;6.922;2023-05-29T12:01:57;22.70;99.90
28524;DHT22;15734;50.904;6.922;2023-05-29T12:04:23;22.60;99.90
28524;DHT22;15734;50.904;6.922;2023-05-29T12:06:49;23.00;99.90
28524;DHT22;15734;50.904;6.922;2023-05-29T12:09:27;23.50;99.90
28524;DHT22;15734;50.904;6.922;2023-05-29T12:12:00;23.90;99.20
28524;DHT22;15734;50.904;6.922;2023-05-29T12:14:26;24.10;98.90
28524;DHT22;15734;50.904;6.922;2023-05-29T12:16:52;24.20;97.30
28524;DHT22;15734;50.904;6.922;2023-05-29T12:19:17;24.10;98.10
28524;DHT22;15734;50.904;6.922;2023-05-29T12:21:43;24.30;97.50
28524;DHT22;15734;50.904;6.922;2023-05-29T12:24:10;24.50;97.10
28524;DHT22;15734;50.904;6.922;2023-05-29T12:26:35;24.60;96.20
28524;DHT22;15734;50.904;6.922;2023-05-29T12:29:04;24.60;95.20
28524;DHT22;15734;50.904;6.922;2023-05-29T12:31:33;24.20;94.80
28524;DHT22;15734;50.904;6.922;2023-05-29T12:34:11;24.00;95.30
28524;DHT22;15734;50.904;6.922;2023-05-29T12:36:40;24.00;94.10
28524;DHT22;15734;50.904;6.922;2023-05-29T12:39:07;24.10;94.60
28524;DHT22;15734;50.904;6.922;2023-05-29T12:41:37;24.20;94.40
28524;DHT22;15734;50.904;6.922;2023-05-29T12:44:04;23.90;94.10
28524;DHT22;15734;50.904;6.922;2023-05-29T12:46:40;23.90;95.10
28524;DHT22;15734;50.904;6.922;2023-05-29T12:49:15;24.00;97.10
28524;DHT22;15734;50.904;6.922;2023-05-29T12:51:41;24.20;93.40
28524;DHT22;15734;50.904;6.922;2023-05-29T12:54:16;24.30;94.50
28524;DHT22;15734;50.904;6.922;2023-05-29T12:56:42;24.70;92.60
28524;DHT22;15734;50.904;6.922;2023-05-29T12:59:08;24.60;92.30
28524;DHT22;15734;50.904;6.922;2023-05-29T13:01:35;24.60;92.70
28524;DHT22;15734;50.904;6.922;2023-05-29T13:04:01;24.50;92.30
28524;DHT22;15734;50.904;6.922;2023-05-29T13:06:26;24.50;95.00
28524;DHT22;15734;50.904;6.922;2023-05-29T13:08:52;24.90;92.50
28524;DHT22;15734;50.904;6.922;2023-05-29T13:11:18;25.10;91.10
28524;DHT22;15734;50.904;6.922;2023-05-29T13:13:43;25.00;90.70
28524;DHT22;15734;50.904;6.922;2023-05-29T13:16:09;24.70;91.30
28524;DHT22;15734;50.904;6.922;2023-05-29T13:18:35;24.60;91.30
28524;DHT22;15734;50.904;6.922;2023-05-29T13:21:00;24.30;91.60
28524;DHT22;15734;50.904;6.922;2023-05-29T13:23:26;24.00;93.00
28524;DHT22;15734;50.904;6.922;2023-05-29T13:25:51;24.20;92.50
28524;DHT22;15734;50.904;6.922;2023-05-29T13:28:17;24.20;91.50
28524;DHT22;15734;50.904;6.922;2023-05-29T13:30:44;24.30;92.80
28524;DHT22;15734;50.904;6.922;2023-05-29T13:33:09;24.60;92.00
28524;DHT22;15734;50.904;6.922;2023-05-29T13:35:35;24.80;90.90
28524;DHT22;15734;50.904;6.922;2023-05-29T13:38:01;24.70;90.50
28524;DHT22;15734;50.904;6.922;2023-05-29T13:40:26;24.60;91.10
28524;DHT22;15734;50.904;6.922;2023-05-29T13:42:53;24.70;91.10
28524;DHT22;15734;50.904;6.922;2023-05-29T13:45:19;24.80;90.60
28524;DHT22;15734;50.904;6.922;2023-05-29T13:47:44;24.90;88.50
28524;DHT22;15734;50.904;6.922;2023-05-29T13:50:10;24.70;90.80
28524;DHT22;15734;50.904;6.922;2023-05-29T13:52:36;24.80;92.30
28524;DHT22;15734;50.904;6.922;2023-05-29T13:55:01;25.20;90.90
28524;DHT22;15734;50.904;6.922;2023-05-29T13:57:33;25.30;87.40
28524;DHT22;15734;50.904;6.922;2023-05-29T13:59:59;25.20;87.30
28524;DHT22;15734;50.904;6.922;2023-05-29T14:02:24;25.00;88.50
28524;DHT22;15734;50.904;6.922;2023-05-29T14:04:50;25.10;87.90
28524;DHT22;15734;50.904;6.922;2023-05-29T14:07:16;25.10;87.60
28524;DHT22;15734;50.904;6.922;2023-05-29T14:09:41;25.10;86.20
28524;DHT22;15734;50.904;6.922;2023-05-29T14:12:07;24.90;85.90
28524;DHT22;15734;50.904;6.922;2023-05-29T14:14:33;24.50;86.60
28524;DHT22;15734;50.904;6.922;2023-05-29T14:16:59;24.20;87.60
28524;DHT22;15734;50.904;6.922;2023-05-29T14:19:25;24.30;89.60
28524;DHT22;15734;50.904;6.922;2023-05-29T14:21:51;24.60;89.60
28524;DHT22;15734;50.904;6.922;2023-05-29T14:24:17;24.70;87.20
28524;DHT22;15734;50.904;6.922;2023-05-29T14:26:44;24.80;88.00
28524;DHT22;15734;50.904;6.922;2023-05-29T14:29:12;24.90;87.70
28524;DHT22;15734;50.904;6.922;2023-05-29T14:31:39;24.40;87.30
28524;DHT22;15734;50.904;6.922;2023-05-29T14:34:05;24.30;87.90
28524;DHT22;15734;50.904;6.922;2023-05-29T14:36:30;24.20;88.00
28524;DHT22;15734;50.904;6.922;2023-05-29T14:38:56;23.90;88.40
28524;DHT22;15734;50.904;6.922;2023-05-29T14:41:21;24.00;90.10
28524;DHT22;15734;50.904;6.922;2023-05-29T14:43:47;24.30;90.20
28524;DHT22;15734;50.904;6.922;2023-05-29T14:46:13;24.40;88.90
28524;DHT22;15734;50.904;6.922;2023-05-29T14:48:38;24.40;89.10
28524;DHT22;15734;50.904;6.922;2023-05-29T14:51:04;24.50;88.70
28524;DHT22;15734;50.904;6.922;2023-05-29T14:53:30;24.40;87.70
28524;DHT22;15734;50.904;6.922;2023-05-29T14:55:57;24.60;88.50
28524;DHT22;15734;50.904;6.922;2023-05-29T14:58:22;24.70;89.10
28524;DHT22;15734;50.904;6.922;2023-05-29T15:00:48;25.00;87.40
28524;DHT22;15734;50.904;6.922;2023-05-29T15:03:13;24.80;85.70
28524;DHT22;15734;50.904;6.922;2023-05-29T15:05:39;24.50;86.50
28524;DHT22;15734;50.904;6.922;2023-05-29T15:08:05;24.40;87.50
28524;DHT22;15734;50.904;6.922;2023-05-29T15:10:30;24.20;87.40
28524;DHT22;15734;50.904;6.922;2023-05-29T15:12:56;24.30;88.20
28524;DHT22;15734;50.904;6.922;2023-05-29T15:15:28;24.10;87.80
28524;DHT22;15734;50.904;6.922;2023-05-29T15:17:54;24.20;88.20
28524;DHT22;15734;50.904;6.922;2023-05-29T15:20:23;24.10;87.60
28524;DHT22;15734;50.904;6.922;2023-05-29T15:22:50;24.20;88.70
28524;DHT22;15734;50.904;6.922;2023-05-29T15:25:17;24.20;86.50
28524;DHT22;15734;50.904;6.922;2023-05-29T15:27:43;24.20;86.70
28524;DHT22;15734;50.904;6.922;2023-05-29T15:30:16;23.90;86.90
28524;DHT22;15734;50.904;6.922;2023-05-29T15:32:44;23.80;88.30
28524;DHT22;15734;50.904;6.922;2023-05-29T15:35:12;23.80;88.60
28524;DHT22;15734;50.904;6.922;2023-05-29T15:37:38;23.80;88.50
28524;DHT22;15734;50.904;6.922;2023-05-29T15:40:04;23.80;88.10
28524;DHT22;15734;50.904;6.922;2023-05-29T15:42:31;23.80;88.10
28524;DHT22;15734;50.904;6.922;2023-05-29T15:44:56;23.70;88.20
28524;DHT22;15734;50.904;6.922;2023-05-29T15:47:22;23.40;88.10
28524;DHT22;15734;50.904;6.922;2023-05-29T15:49:48;23.00;88.60
28524;DHT22;15734;50.904;6.922;2023-05-29T15:52:14;23.00;88.80
28524;DHT22;15734;50.904;6.922;2023-05-29T15:54:40;22.80;88.40